sensor_id;sensor_type;location;lat;lon;timestamp;temperature;humidity
59975;DHT22;62136;-35.664;-63.766;2022-10-28T00:01:19;25.50;37.70
59975;DHT22;62136;-35.664;-63.766;2022-10-28T00:03:49;25.50;37.80
59975;DHT22;62136;-35.664;-63.766;2022-10-28T00:06:19;25.50;37.70
59975;DHT22;62136;-35.664;-63.766;2022-10-28T00:08:46;25.40;37.80
59975;DHT22;62136;-35.664;-63.766;2022-10-28T00:11:17;25.40;37.40
59975;DHT22;62136;-35.664;-63.766;2022-10-28T00:13:44;25.40;37.00
59975;DHT22;62136;-35.664;-63.766;2022-10-28T00:16:21;25.40;37.00
59975;DHT22;62136;-35.664;-63.766;2022-10-28T00:18:48;25.40;37.20
59975;DHT22;62136;-35.664;-63.766;2022-10-28T00:21:20;25.30;36.70
59975;DHT22;62136;-35.664;-63.766;2022-10-28T00:23:47;25.30;36.80
59975;DHT22;62136;-35.664;-63.766;2022-10-28T00:26:17;25.40;37.00
59975;DHT22;62136;-35.664;-63.766;2022-10-28T00:28:47;25.30;37.00
59975;DHT22;62136;-35.664;-63.766;2022-10-28T00:31:16;25.30;37.20
59975;DHT22;62136;-35.664;-63.766;2022-10-28T00:33:44;25.20;37.60
59975;DHT22;62136;-35.664;-63.766;2022-10-28T00:36:20;25.30;37.90
59975;DHT22;62136;-35.664;-63.766;2022-10-28T00:38:49;25.20;38.30
59975;DHT22;62136;-35.664;-63.766;2022-10-28T00:41:22;25.20;38.60
59975;DHT22;62136;-35.664;-63.766;2022-10-28T00:43:53;25.20;38.90
59975;DHT22;62136;-35.664;-63.766;2022-10-28T00:46:25;25.20;39.00
59975;DHT22;62136;-35.664;-63.766;2022-10-28T00:49:46;25.20;39.00
59975;DHT22;62136;-35.664;-63.766;2022-10-28T00:52:10;25.20;38.90
59975;DHT22;62136;-35.664;-63.766;2022-10-28T00:54:42;25.20;38.80
59975;DHT22;62136;-35.664;-63.766;2022-10-28T00:57:13;25.10;39.00
59975;DHT22;62136;-35.664;-63.766;2022-10-28T00:59:46;25.10;39.00
59975;DHT22;62136;-35.664;-63.766;2022-10-28T01:02:14;25.10;39.30
59975;DHT22;62136;-35.664;-63.766;2022-10-28T01:04:42;25.10;39.60
59975;DHT22;62136;-35.664;-63.766;2022-10-28T01:07:10;25.10;39.70
59975;DHT22;62136;-35.664;-63.766;2022-10-28T01:09:38;25.10;39.60
59975;DHT22;62136;-35.664;-63.766;2022-10-28T01:34:34;25.00;40.10
59975;DHT22;62136;-35.664;-63.766;2022-10-28T01:37:31;25.00;40.10
59975;DHT22;62136;-35.664;-63.766;2022-10-28T01:40:11;25.00;40.20
59975;DHT22;62136;-35.664;-63.766;2022-10-28T01:45:37;25.00;40.10
59975;DHT22;62136;-35.664;-63.766;2022-10-28T01:48:14;25.00;40.20
59975;DHT22;62136;-35.664;-63.766;2022-10-28T01:51:53;24.90;40.20
59975;DHT22;62136;-35.664;-63.766;2022-10-28T01:54:02;24.90;40.20
59975;DHT22;62136;-35.664;-63.766;2022-10-28T01:56:35;24.90;40.40
59975;DHT22;62136;-35.664;-63.766;2022-10-28T01:59:07;24.90;40.40
59975;DHT22;62136;-35.664;-63.766;2022-10-28T02:01:35;24.90;40.40
59975;DHT22;62136;-35.664;-63.766;2022-10-28T02:04:02;24.90;40.40
59975;DHT22;62136;-35.664;-63.766;2022-10-28T02:06:31;24.80;40.40
59975;DHT22;62136;-35.664;-63.766;2022-10-28T02:21:14;24.70;40.50
59975;DHT22;62136;-35.664;-63.766;2022-10-28T02:23:54;24.70;40.60
59975;DHT22;62136;-35.664;-63.766;2022-10-28T02:26:46;24.70;40.60
59975;DHT22;62136;-35.664;-63.766;2022-10-28T02:29:37;24.70;40.70
59975;DHT22;62136;-35.664;-63.766;2022-10-28T02:32:12;24.70;40.70
59975;DHT22;62136;-35.664;-63.766;2022-10-28T02:34:44;24.70;40.70
59975;DHT22;62136;-35.664;-63.766;2022-10-28T02:37:20;24.60;40.70
59975;DHT22;62136;-35.664;-63.766;2022-10-28T02:39:52;24.70;40.70
59975;DHT22;62136;-35.664;-63.766;2022-10-28T02:42:36;24.70;40.80
59975;DHT22;62136;-35.664;-63.766;2022-10-28T02:45:20;24.60;40.70
59975;DHT22;62136;-35.664;-63.766;2022-10-28T02:47:55;24.50;40.70
59975;DHT22;62136;-35.664;-63.766;2022-10-28T02:50:33;24.60;40.80
59975;DHT22;62136;-35.664;-63.766;2022-10-28T02:53:03;24.60;40.80
59975;DHT22;62136;-35.664;-63.766;2022-10-28T02:55:37;24.60;40.80
59975;DHT22;62136;-35.664;-63.766;2022-10-28T02:58:05;24.50;40.70
59975;DHT22;62136;-35.664;-63.766;2022-10-28T03:00:32;24.50;40.80
59975;DHT22;62136;-35.664;-63.766;2022-10-28T03:03:03;24.50;40.80
59975;DHT22;62136;-35.664;-63.766;2022-10-28T03:05:30;24.50;40.90
59975;DHT22;62136;-35.664;-63.766;2022-10-28T03:07:57;24.50;40.90
59975;DHT22;62136;-35.664;-63.766;2022-10-28T03:10:24;24.50;40.90
59975;DHT22;62136;-35.664;-63.766;2022-10-28T03:12:51;24.50;40.90
59975;DHT22;62136;-35.664;-63.766;2022-10-28T03:15:21;24.50;40.90
59975;DHT22;62136;-35.664;-63.766;2022-10-28T03:17:53;24.50;40.90
59975;DHT22;62136;-35.664;-63.766;2022-10-28T03:20:20;24.50;40.90
59975;DHT22;62136;-35.664;-63.766;2022-10-28T03:22:47;24.40;40.90
59975;DHT22;62136;-35.664;-63.766;2022-10-28T03:25:15;24.40;40.90
59975;DHT22;62136;-35.664;-63.766;2022-10-28T03:27:42;24.50;40.90
59975;DHT22;62136;-35.664;-63.766;2022-10-28T03:30:09;24.40;40.90
59975;DHT22;62136;-35.664;-63.766;2022-10-28T03:32:36;24.40;40.90
59975;DHT22;62136;-35.664;-63.766;2022-10-28T03:35:03;24.40;40.90
59975;DHT22;62136;-35.664;-63.766;2022-10-28T03:37:30;24.40;40.90
59975;DHT22;62136;-35.664;-63.766;2022-10-28T03:39:57;24.40;41.00
59975;DHT22;62136;-35.664;-63.766;2022-10-28T03:42:28;24.40;41.00
59975;DHT22;62136;-35.664;-63.766;2022-10-28T03:44:55;24.40;41.00
59975;DHT22;62136;-35.664;-63.766;2022-10-28T03:47:24;24.30;41.00
59975;DHT22;62136;-35.664;-63.766;2022-10-28T03:49:51;24.30;41.00
59975;DHT22;62136;-35.664;-63.766;2022-10-28T03:52:19;24.30;41.10
59975;DHT22;62136;-35.664;-63.766;2022-10-28T03:54:46;24.30;41.10
59975;DHT22;62136;-35.664;-63.766;2022-10-28T03:57:13;24.30;41.10
59975;DHT22;62136;-35.664;-63.766;2022-10-28T03:59:43;24.30;41.10
59975;DHT22;62136;-35.664;-63.766;2022-10-28T04:02:10;24.20;41.10
59975;DHT22;62136;-35.664;-63.766;2022-10-28T04:04:36;24.30;41.10
59975;DHT22;62136;-35.664;-63.766;2022-10-28T04:07:04;24.30;41.10
59975;DHT22;62136;-35.664;-63.766;2022-10-28T04:09:30;24.20;41.10
59975;DHT22;62136;-35.664;-63.766;2022-10-28T04:11:57;24.20;41.10
59975;DHT22;62136;-35.664;-63.766;2022-10-28T04:14:24;24.20;41.20
59975;DHT22;62136;-35.664;-63.766;2022-10-28T04:16:52;24.20;41.20
59975;DHT22;62136;-35.664;-63.766;2022-10-28T04:19:18;24.20;41.20
59975;DHT22;62136;-35.664;-63.766;2022-10-28T04:21:45;24.10;41.20
59975;DHT22;62136;-35.664;-63.766;2022-10-28T04:24:15;24.10;41.20
59975;DHT22;62136;-35.664;-63.766;2022-10-28T04:26:42;24.10;41.30
59975;DHT22;62136;-35.664;-63.766;2022-10-28T04:29:09;24.10;41.30
59975;DHT22;62136;-35.664;-63.766;2022-10-28T04:31:41;24.10;41.40
59975;DHT22;62136;-35.664;-63.766;2022-10-28T04:34:08;24.10;41.40
59975;DHT22;62136;-35.664;-63.766;2022-10-28T04:36:35;24.10;41.50
59975;DHT22;62136;-35.664;-63.766;2022-10-28T04:39:04;24.10;41.50
59975;DHT22;62136;-35.664;-63.766;2022-10-28T04:41:31;24.10;41.50
59975;DHT22;62136;-35.664;-63.766;2022-10-28T04:44:01;24.10;41.60
59975;DHT22;62136;-35.664;-63.766;2022-10-28T04:46:28;24.10;41.60
59975;DHT22;62136;-35.664;-63.766;2022-10-28T04:48:55;24.00;41.50
59975;DHT22;62136;-35.664;-63.766;2022-10-28T04:51:22;24.00;41.60
59975;DHT22;62136;-35.664;-63.766;2022-10-28T04:53:49;24.00;41.60
59975;DHT22;62136;-35.664;-63.766;2022-10-28T04:56:16;23.90;41.60
59975;DHT22;62136;-35.664;-63.766;2022-10-28T04:58:43;24.00;41.80
59975;DHT22;62136;-35.664;-63.766;2022-10-28T05:01:10;24.00;41.80
59975;DHT22;62136;-35.664;-63.766;2022-10-28T05:03:37;24.00;41.80
59975;DHT22;62136;-35.664;-63.766;2022-10-28T05:06:04;23.90;41.80
59975;DHT22;62136;-35.664;-63.766;2022-10-28T05:08:31;23.90;41.90
59975;DHT22;62136;-35.664;-63.766;2022-10-28T05:10:58;23.90;41.90
59975;DHT22;62136;-35.664;-63.766;2022-10-28T05:13:25;23.90;41.90
59975;DHT22;62136;-35.664;-63.766;2022-10-28T05:15:52;23.90;42.00
59975;DHT22;62136;-35.664;-63.766;2022-10-28T05:18:19;23.90;42.00
59975;DHT22;62136;-35.664;-63.766;2022-10-28T05:20:46;23.90;42.00
59975;DHT22;62136;-35.664;-63.766;2022-10-28T05:23:18;23.90;42.10
59975;DHT22;62136;-35.664;-63.766;2022-10-28T05:25:44;23.90;42.20
59975;DHT22;62136;-35.664;-63.766;2022-10-28T05:28:11;23.90;42.20
59975;DHT22;62136;-35.664;-63.766;2022-10-28T05:30:39;23.80;42.20
59975;DHT22;62136;-35.664;-63.766;2022-10-28T05:33:05;23.80;42.20
59975;DHT22;62136;-35.664;-63.766;2022-10-28T05:35:32;23.80;42.20
59975;DHT22;62136;-35.664;-63.766;2022-10-28T05:37:59;23.80;42.30
59975;DHT22;62136;-35.664;-63.766;2022-10-28T05:40:26;23.80;42.40
59975;DHT22;62136;-35.664;-63.766;2022-10-28T05:42:53;23.80;42.30
59975;DHT22;62136;-35.664;-63.766;2022-10-28T05:45:20;23.80;42.40
59975;DHT22;62136;-35.664;-63.766;2022-10-28T05:47:48;23.80;42.40
59975;DHT22;62136;-35.664;-63.766;2022-10-28T05:50:17;23.80;42.40
59975;DHT22;62136;-35.664;-63.766;2022-10-28T05:52:54;23.80;42.60
59975;DHT22;62136;-35.664;-63.766;2022-10-28T05:55:23;23.80;42.50
59975;DHT22;62136;-35.664;-63.766;2022-10-28T05:57:51;23.80;42.50
59975;DHT22;62136;-35.664;-63.766;2022-10-28T06:00:21;23.70;42.60
59975;DHT22;62136;-35.664;-63.766;2022-10-28T06:02:48;23.70;42.60
59975;DHT22;62136;-35.664;-63.766;2022-10-28T06:05:15;23.70;42.60
59975;DHT22;62136;-35.664;-63.766;2022-10-28T06:07:42;23.70;42.60
59975;DHT22;62136;-35.664;-63.766;2022-10-28T06:10:10;23.70;42.70
59975;DHT22;62136;-35.664;-63.766;2022-10-28T06:12:37;23.70;43.10
59975;DHT22;62136;-35.664;-63.766;2022-10-28T06:15:05;23.70;42.80
59975;DHT22;62136;-35.664;-63.766;2022-10-28T06:17:32;23.60;42.70
59975;DHT22;62136;-35.664;-63.766;2022-10-28T06:20:02;23.60;42.70
59975;DHT22;62136;-35.664;-63.766;2022-10-28T06:22:30;23.60;42.90
59975;DHT22;62136;-35.664;-63.766;2022-10-28T06:24:57;23.60;42.80
59975;DHT22;62136;-35.664;-63.766;2022-10-28T06:27:24;23.60;42.90
59975;DHT22;62136;-35.664;-63.766;2022-10-28T06:29:51;23.60;43.00
59975;DHT22;62136;-35.664;-63.766;2022-10-28T06:32:18;23.60;43.00
59975;DHT22;62136;-35.664;-63.766;2022-10-28T06:34:44;23.60;43.10
59975;DHT22;62136;-35.664;-63.766;2022-10-28T06:37:11;23.60;43.10
59975;DHT22;62136;-35.664;-63.766;2022-10-28T06:39:39;23.60;43.10
59975;DHT22;62136;-35.664;-63.766;2022-10-28T06:42:08;23.50;43.10
59975;DHT22;62136;-35.664;-63.766;2022-10-28T06:44:35;23.60;43.20
59975;DHT22;62136;-35.664;-63.766;2022-10-28T06:47:02;23.50;43.20
59975;DHT22;62136;-35.664;-63.766;2022-10-28T06:49:29;23.50;43.20
59975;DHT22;62136;-35.664;-63.766;2022-10-28T06:51:56;23.50;43.40
59975;DHT22;62136;-35.664;-63.766;2022-10-28T06:54:23;23.50;43.50
59975;DHT22;62136;-35.664;-63.766;2022-10-28T06:56:50;23.50;43.40
59975;DHT22;62136;-35.664;-63.766;2022-10-28T06:59:17;23.50;43.40
59975;DHT22;62136;-35.664;-63.766;2022-10-28T07:01:44;23.50;43.40
59975;DHT22;62136;-35.664;-63.766;2022-10-28T07:04:12;23.50;43.50
59975;DHT22;62136;-35.664;-63.766;2022-10-28T07:06:40;23.50;43.40
59975;DHT22;62136;-35.664;-63.766;2022-10-28T07:09:07;23.50;43.50
59975;DHT22;62136;-35.664;-63.766;2022-10-28T07:11:35;23.50;43.80
59975;DHT22;62136;-35.664;-63.766;2022-10-28T07:14:02;23.50;43.80
59975;DHT22;62136;-35.664;-63.766;2022-10-28T07:16:29;23.40;43.70
59975;DHT22;62136;-35.664;-63.766;2022-10-28T07:18:56;23.40;43.70
59975;DHT22;62136;-35.664;-63.766;2022-10-28T07:21:23;23.40;44.00
59975;DHT22;62136;-35.664;-63.766;2022-10-28T07:23:54;23.40;44.00
59975;DHT22;62136;-35.664;-63.766;2022-10-28T07:26:22;23.40;43.90
59975;DHT22;62136;-35.664;-63.766;2022-10-28T07:28:50;23.30;44.10
59975;DHT22;62136;-35.664;-63.766;2022-10-28T07:31:17;23.30;44.10
59975;DHT22;62136;-35.664;-63.766;2022-10-28T07:33:44;23.30;44.00
59975;DHT22;62136;-35.664;-63.766;2022-10-28T07:36:17;23.30;44.00
59975;DHT22;62136;-35.664;-63.766;2022-10-28T07:38:46;23.30;44.00
59975;DHT22;62136;-35.664;-63.766;2022-10-28T07:41:14;23.30;44.30
59975;DHT22;62136;-35.664;-63.766;2022-10-28T07:43:41;23.30;44.10
59975;DHT22;62136;-35.664;-63.766;2022-10-28T07:46:08;23.20;44.50
59975;DHT22;62136;-35.664;-63.766;2022-10-28T07:48:36;23.20;44.50
59975;DHT22;62136;-35.664;-63.766;2022-10-28T07:51:07;23.20;44.50
59975;DHT22;62136;-35.664;-63.766;2022-10-28T07:53:35;23.20;44.40
59975;DHT22;62136;-35.664;-63.766;2022-10-28T07:56:06;23.20;44.50
59975;DHT22;62136;-35.664;-63.766;2022-10-28T07:58:39;23.10;44.40
59975;DHT22;62136;-35.664;-63.766;2022-10-28T08:01:07;23.20;44.70
59975;DHT22;62136;-35.664;-63.766;2022-10-28T08:03:35;23.10;44.50
59975;DHT22;62136;-35.664;-63.766;2022-10-28T08:06:06;23.10;44.70
59975;DHT22;62136;-35.664;-63.766;2022-10-28T08:08:33;23.10;44.80
59975;DHT22;62136;-35.664;-63.766;2022-10-28T08:11:11;23.10;44.70
59975;DHT22;62136;-35.664;-63.766;2022-10-28T08:13:39;23.10;44.90
59975;DHT22;62136;-35.664;-63.766;2022-10-28T08:16:06;23.10;45.10
59975;DHT22;62136;-35.664;-63.766;2022-10-28T08:18:34;23.00;44.90
59975;DHT22;62136;-35.664;-63.766;2022-10-28T08:21:02;23.00;45.00
59975;DHT22;62136;-35.664;-63.766;2022-10-28T08:23:30;23.00;45.10
59975;DHT22;62136;-35.664;-63.766;2022-10-28T08:25:57;23.00;44.80
59975;DHT22;62136;-35.664;-63.766;2022-10-28T08:28:24;23.00;45.00
59975;DHT22;62136;-35.664;-63.766;2022-10-28T08:30:52;23.00;44.90
59975;DHT22;62136;-35.664;-63.766;2022-10-28T08:33:19;23.00;45.30
59975;DHT22;62136;-35.664;-63.766;2022-10-28T08:35:49;23.00;44.90
59975;DHT22;62136;-35.664;-63.766;2022-10-28T08:38:17;22.90;45.30
59975;DHT22;62136;-35.664;-63.766;2022-10-28T08:40:47;22.90;45.30
59975;DHT22;62136;-35.664;-63.766;2022-10-28T08:49:22;22.90;45.50
59975;DHT22;62136;-35.664;-63.766;2022-10-28T08:57:33;22.80;45.60
59975;DHT22;62136;-35.664;-63.766;2022-10-28T09:00:06;22.80;45.70
59975;DHT22;62136;-35.664;-63.766;2022-10-28T09:02:58;22.80;45.70
59975;DHT22;62136;-35.664;-63.766;2022-10-28T09:05:27;22.80;45.80
59975;DHT22;62136;-35.664;-63.766;2022-10-28T09:07:55;22.80;45.40
59975;DHT22;62136;-35.664;-63.766;2022-10-28T09:10:54;22.80;45.90
59975;DHT22;62136;-35.664;-63.766;2022-10-28T09:21:29;22.70;46.00
59975;DHT22;62136;-35.664;-63.766;2022-10-28T09:23:59;22.70;45.90
59975;DHT22;62136;-35.664;-63.766;2022-10-28T09:26:43;22.70;45.90
59975;DHT22;62136;-35.664;-63.766;2022-10-28T09:32:07;22.60;46.00
59975;DHT22;62136;-35.664;-63.766;2022-10-28T09:37:23;22.60;46.20
59975;DHT22;62136;-35.664;-63.766;2022-10-28T09:39:58;22.60;46.20
59975;DHT22;62136;-35.664;-63.766;2022-10-28T09:42:30;22.60;46.30
59975;DHT22;62136;-35.664;-63.766;2022-10-28T09:45:02;22.60;46.20
59975;DHT22;62136;-35.664;-63.766;2022-10-28T09:47:36;22.50;46.20
59975;DHT22;62136;-35.664;-63.766;2022-10-28T09:50:12;22.50;46.30
59975;DHT22;62136;-35.664;-63.766;2022-10-28T09:52:49;22.50;46.30
59975;DHT22;62136;-35.664;-63.766;2022-10-28T09:55:20;22.50;46.20
59975;DHT22;62136;-35.664;-63.766;2022-10-28T09:57:48;22.50;46.40
59975;DHT22;62136;-35.664;-63.766;2022-10-28T10:00:16;22.60;46.50
59975;DHT22;62136;-35.664;-63.766;2022-10-28T10:02:44;22.50;46.30
59975;DHT22;62136;-35.664;-63.766;2022-10-28T10:05:17;22.50;46.50
59975;DHT22;62136;-35.664;-63.766;2022-10-28T10:10:27;22.50;46.50
59975;DHT22;62136;-35.664;-63.766;2022-10-28T10:12:58;22.50;46.60
59975;DHT22;62136;-35.664;-63.766;2022-10-28T10:15:36;22.50;46.70
59975;DHT22;62136;-35.664;-63.766;2022-10-28T10:18:06;22.50;46.60
59975;DHT22;62136;-35.664;-63.766;2022-10-28T10:20:51;22.50;46.70
59975;DHT22;62136;-35.664;-63.766;2022-10-28T10:23:37;22.50;46.60
59975;DHT22;62136;-35.664;-63.766;2022-10-28T10:26:07;22.50;46.70
59975;DHT22;62136;-35.664;-63.766;2022-10-28T10:28:38;22.50;46.80
59975;DHT22;62136;-35.664;-63.766;2022-10-28T10:31:07;22.40;46.60
59975;DHT22;62136;-35.664;-63.766;2022-10-28T10:33:42;22.50;46.80
59975;DHT22;62136;-35.664;-63.766;2022-10-28T10:36:13;22.40;46.80
59975;DHT22;62136;-35.664;-63.766;2022-10-28T10:38:52;22.40;46.80
59975;DHT22;62136;-35.664;-63.766;2022-10-28T10:41:43;22.40;46.70
59975;DHT22;62136;-35.664;-63.766;2022-10-28T10:49:35;22.40;46.80
59975;DHT22;62136;-35.664;-63.766;2022-10-28T10:52:20;22.40;46.80
59975;DHT22;62136;-35.664;-63.766;2022-10-28T10:55:04;22.50;46.90
59975;DHT22;62136;-35.664;-63.766;2022-10-28T10:57:34;22.50;47.10
59975;DHT22;62136;-35.664;-63.766;2022-10-28T11:00:03;22.50;47.10
59975;DHT22;62136;-35.664;-63.766;2022-10-28T11:02:32;22.50;47.20
59975;DHT22;62136;-35.664;-63.766;2022-10-28T11:05:09;22.40;47.20
59975;DHT22;62136;-35.664;-63.766;2022-10-28T11:07:38;22.50;47.50
59975;DHT22;62136;-35.664;-63.766;2022-10-28T11:10:26;22.50;48.00
59975;DHT22;62136;-35.664;-63.766;2022-10-28T11:13:01;22.50;48.80
59975;DHT22;62136;-35.664;-63.766;2022-10-28T11:15:29;22.50;49.00
59975;DHT22;62136;-35.664;-63.766;2022-10-28T11:18:03;22.50;49.60
59975;DHT22;62136;-35.664;-63.766;2022-10-28T11:26:24;22.60;51.80
59975;DHT22;62136;-35.664;-63.766;2022-10-28T11:29:13;22.60;52.10
59975;DHT22;62136;-35.664;-63.766;2022-10-28T11:40:02;22.80;53.90
59975;DHT22;62136;-35.664;-63.766;2022-10-28T11:51:37;23.00;55.90
59975;DHT22;62136;-35.664;-63.766;2022-10-28T11:57:05;23.10;56.50
59975;DHT22;62136;-35.664;-63.766;2022-10-28T12:05:52;23.30;57.60
59975;DHT22;62136;-35.664;-63.766;2022-10-28T12:11:19;23.40;58.10
59975;DHT22;62136;-35.664;-63.766;2022-10-28T12:16:47;23.50;58.50
59975;DHT22;62136;-35.664;-63.766;2022-10-28T12:24:42;23.70;59.30
59975;DHT22;62136;-35.664;-63.766;2022-10-28T12:29:57;23.80;60.00
59975;DHT22;62136;-35.664;-63.766;2022-10-28T12:32:32;23.80;59.80
59975;DHT22;62136;-35.664;-63.766;2022-10-28T12:38:02;23.80;59.70
59975;DHT22;62136;-35.664;-63.766;2022-10-28T12:40:59;23.90;60.20
59975;DHT22;62136;-35.664;-63.766;2022-10-28T12:43:53;23.90;59.10
59975;DHT22;62136;-35.664;-63.766;2022-10-28T12:49:41;24.00;58.90
59975;DHT22;62136;-35.664;-63.766;2022-10-28T12:57:43;24.10;58.00
59975;DHT22;62136;-35.664;-63.766;2022-10-28T13:00:31;24.10;57.60
59975;DHT22;62136;-35.664;-63.766;2022-10-28T13:03:12;24.10;57.50
59975;DHT22;62136;-35.664;-63.766;2022-10-28T13:23:26;24.10;58.00
59975;DHT22;62136;-35.664;-63.766;2022-10-28T13:25:57;24.20;57.50
59975;DHT22;62136;-35.664;-63.766;2022-10-28T13:28:33;24.20;57.60
59975;DHT22;62136;-35.664;-63.766;2022-10-28T13:31:04;24.20;57.30
59975;DHT22;62136;-35.664;-63.766;2022-10-28T13:33:34;24.20;56.90
59975;DHT22;62136;-35.664;-63.766;2022-10-28T13:36:09;24.30;56.50
59975;DHT22;62136;-35.664;-63.766;2022-10-28T13:38:41;24.30;56.40
59975;DHT22;62136;-35.664;-63.766;2022-10-28T13:41:24;24.30;56.10
59975;DHT22;62136;-35.664;-63.766;2022-10-28T13:43:56;24.30;55.80
59975;DHT22;62136;-35.664;-63.766;2022-10-28T13:49:29;24.30;55.30
59975;DHT22;62136;-35.664;-63.766;2022-10-28T13:57:32;24.40;54.20
59975;DHT22;62136;-35.664;-63.766;2022-10-28T14:00:32;24.40;54.00
59975;DHT22;62136;-35.664;-63.766;2022-10-28T14:02:57;24.40;53.50
59975;DHT22;62136;-35.664;-63.766;2022-10-28T14:08:06;24.40;52.70
59975;DHT22;62136;-35.664;-63.766;2022-10-28T14:10:38;24.40;51.80
59975;DHT22;62136;-35.664;-63.766;2022-10-28T14:13:16;24.40;51.80
59975;DHT22;62136;-35.664;-63.766;2022-10-28T14:15:44;24.40;51.60
59975;DHT22;62136;-35.664;-63.766;2022-10-28T14:20:53;24.50;51.30
59975;DHT22;62136;-35.664;-63.766;2022-10-28T14:28:48;24.50;49.90
59975;DHT22;62136;-35.664;-63.766;2022-10-28T14:31:18;24.50;49.20
59975;DHT22;62136;-35.664;-63.766;2022-10-28T14:39:44;24.50;49.20
59975;DHT22;62136;-35.664;-63.766;2022-10-28T14:48:22;24.50;47.70
59975;DHT22;62136;-35.664;-63.766;2022-10-28T14:50:54;24.50;46.40
59975;DHT22;62136;-35.664;-63.766;2022-10-28T14:53:33;24.50;47.00
59975;DHT22;62136;-35.664;-63.766;2022-10-28T14:56:06;24.50;46.00
59975;DHT22;62136;-35.664;-63.766;2022-10-28T14:58:36;24.50;46.00
59975;DHT22;62136;-35.664;-63.766;2022-10-28T15:04:09;24.50;44.80
59975;DHT22;62136;-35.664;-63.766;2022-10-28T15:06:40;24.50;44.50
59975;DHT22;62136;-35.664;-63.766;2022-10-28T15:12:20;24.50;43.10
59975;DHT22;62136;-35.664;-63.766;2022-10-28T15:14:50;24.60;43.00
59975;DHT22;62136;-35.664;-63.766;2022-10-28T15:17:20;24.60;42.40
59975;DHT22;62136;-35.664;-63.766;2022-10-28T15:19:53;24.60;41.20
59975;DHT22;62136;-35.664;-63.766;2022-10-28T15:22:21;24.70;42.10
59975;DHT22;62136;-35.664;-63.766;2022-10-28T15:27:23;24.80;41.70
59975;DHT22;62136;-35.664;-63.766;2022-10-28T15:29:51;24.80;41.70
59975;DHT22;62136;-35.664;-63.766;2022-10-28T15:34:49;24.90;41.40
59975;DHT22;62136;-35.664;-63.766;2022-10-28T15:37:21;25.00;41.10
59975;DHT22;62136;-35.664;-63.766;2022-10-28T15:39:50;25.00;40.80
59975;DHT22;62136;-35.664;-63.766;2022-10-28T15:42:30;25.00;40.30
59975;DHT22;62136;-35.664;-63.766;2022-10-28T15:45:02;25.00;40.40
59975;DHT22;62136;-35.664;-63.766;2022-10-28T15:47:32;25.00;39.50
59975;DHT22;62136;-35.664;-63.766;2022-10-28T15:50:25;25.10;39.90
59975;DHT22;62136;-35.664;-63.766;2022-10-28T15:53:19;25.10;39.60
59975;DHT22;62136;-35.664;-63.766;2022-10-28T15:56:16;25.10;39.10
59975;DHT22;62136;-35.664;-63.766;2022-10-28T15:58:43;25.10;39.10
59975;DHT22;62136;-35.664;-63.766;2022-10-28T16:01:27;25.10;39.00
59975;DHT22;62136;-35.664;-63.766;2022-10-28T16:03:55;25.20;38.90
59975;DHT22;62136;-35.664;-63.766;2022-10-28T16:06:25;25.20;38.30
59975;DHT22;62136;-35.664;-63.766;2022-10-28T16:09:02;25.10;38.20
59975;DHT22;62136;-35.664;-63.766;2022-10-28T16:11:32;25.20;38.40
59975;DHT22;62136;-35.664;-63.766;2022-10-28T16:14:31;25.20;38.00
59975;DHT22;62136;-35.664;-63.766;2022-10-28T16:17:04;25.20;36.30
59975;DHT22;62136;-35.664;-63.766;2022-10-28T16:19:35;25.20;36.70
59975;DHT22;62136;-35.664;-63.766;2022-10-28T16:22:04;25.30;37.00
59975;DHT22;62136;-35.664;-63.766;2022-10-28T16:24:32;25.30;37.10
59975;DHT22;62136;-35.664;-63.766;2022-10-28T16:27:15;25.30;35.70
59975;DHT22;62136;-35.664;-63.766;2022-10-28T16:29:46;25.30;35.50
59975;DHT22;62136;-35.664;-63.766;2022-10-28T16:32:15;25.30;36.70
59975;DHT22;62136;-35.664;-63.766;2022-10-28T16:34:42;25.30;35.40
59975;DHT22;62136;-35.664;-63.766;2022-10-28T16:37:30;25.40;35.80
59975;DHT22;62136;-35.664;-63.766;2022-10-28T16:39:58;25.30;33.70
59975;DHT22;62136;-35.664;-63.766;2022-10-28T16:42:25;25.40;32.70
59975;DHT22;62136;-35.664;-63.766;2022-10-28T16:44:53;25.40;33.20
59975;DHT22;62136;-35.664;-63.766;2022-10-28T16:47:22;25.40;34.00
59975;DHT22;62136;-35.664;-63.766;2022-10-28T16:49:52;25.40;33.00
59975;DHT22;62136;-35.664;-63.766;2022-10-28T16:52:24;25.40;33.30
59975;DHT22;62136;-35.664;-63.766;2022-10-28T16:54:51;25.40;33.30
59975;DHT22;62136;-35.664;-63.766;2022-10-28T16:57:20;25.40;33.80
59975;DHT22;62136;-35.664;-63.766;2022-10-28T16:59:47;25.40;33.60
59975;DHT22;62136;-35.664;-63.766;2022-10-28T17:02:34;25.50;33.70
59975;DHT22;62136;-35.664;-63.766;2022-10-28T17:05:01;25.40;33.60
59975;DHT22;62136;-35.664;-63.766;2022-10-28T17:07:33;25.50;32.90
59975;DHT22;62136;-35.664;-63.766;2022-10-28T17:10:00;25.50;32.80
59975;DHT22;62136;-35.664;-63.766;2022-10-28T17:12:28;25.50;32.60
59975;DHT22;62136;-35.664;-63.766;2022-10-28T17:14:55;25.50;32.20
59975;DHT22;62136;-35.664;-63.766;2022-10-28T17:17:23;25.50;30.90
59975;DHT22;62136;-35.664;-63.766;2022-10-28T17:19:50;25.50;32.00
59975;DHT22;62136;-35.664;-63.766;2022-10-28T17:22:17;25.50;30.70
59975;DHT22;62136;-35.664;-63.766;2022-10-28T17:24:44;25.60;31.40
59975;DHT22;62136;-35.664;-63.766;2022-10-28T17:27:11;25.50;30.40
59975;DHT22;62136;-35.664;-63.766;2022-10-28T17:29:38;25.60;29.70
59975;DHT22;62136;-35.664;-63.766;2022-10-28T17:32:08;25.60;30.20
59975;DHT22;62136;-35.664;-63.766;2022-10-28T17:34:35;25.70;30.10
59975;DHT22;62136;-35.664;-63.766;2022-10-28T17:37:03;25.70;31.50
59975;DHT22;62136;-35.664;-63.766;2022-10-28T17:39:30;25.70;31.20
59975;DHT22;62136;-35.664;-63.766;2022-10-28T17:41:57;25.70;31.50
59975;DHT22;62136;-35.664;-63.766;2022-10-28T17:44:24;25.70;30.70
59975;DHT22;62136;-35.664;-63.766;2022-10-28T17:46:52;25.70;30.80
59975;DHT22;62136;-35.664;-63.766;2022-10-28T17:49:28;25.80;31.40
59975;DHT22;62136;-35.664;-63.766;2022-10-28T17:51:56;25.70;31.20
59975;DHT22;62136;-35.664;-63.766;2022-10-28T17:54:23;25.80;32.30
59975;DHT22;62136;-35.664;-63.766;2022-10-28T17:56:50;25.80;31.40
59975;DHT22;62136;-35.664;-63.766;2022-10-28T17:59:17;25.80;31.40
59975;DHT22;62136;-35.664;-63.766;2022-10-28T18:01:44;25.80;30.60
59975;DHT22;62136;-35.664;-63.766;2022-10-28T18:04:11;25.80;31.00
59975;DHT22;62136;-35.664;-63.766;2022-10-28T18:06:38;25.80;30.70
59975;DHT22;62136;-35.664;-63.766;2022-10-28T18:09:10;25.90;31.10
59975;DHT22;62136;-35.664;-63.766;2022-10-28T18:11:37;25.80;30.70
59975;DHT22;62136;-35.664;-63.766;2022-10-28T18:14:05;25.80;31.10
59975;DHT22;62136;-35.664;-63.766;2022-10-28T18:16:34;25.80;31.20
59975;DHT22;62136;-35.664;-63.766;2022-10-28T18:19:03;25.90;31.10
59975;DHT22;62136;-35.664;-63.766;2022-10-28T18:21:32;25.80;31.10